Time;durP1;ratioP1;P1;durP2;ratioP2;P2;SDS_P1;SDS_P2;PMS_P1;PMS_P2;Temp;Humidity;BMP_temperature;BMP_pressure;BME280_temperature;BME280_humidity;BME280_pressure;Samples;Min_cycle;Max_cycle;Signal;HPM_P1;HPM_P2
2024/04/19 00:02:10;;;;;;;2.40;2.13;;;;;;;6.00;45.04;93331.19;5230916;27;20093;-75
2024/04/19 00:04:36;;;;;;;5.30;2.63;;;;;;;6.24;44.34;93341.53;5241621;26;20008;-74
2024/04/19 00:07:01;;;;;;;2.92;2.40;;;;;;;6.38;45.03;93347.56;5271212;26;20020;-74
2024/04/19 00:09:27;;;;;;;2.10;1.90;;;;;;;6.47;45.26;93345.00;5269131;26;20017;-75
2024/04/19 00:11:52;;;;;;;4.50;2.20;;;;;;;6.58;45.44;93335.78;5273925;26;20341;-75
2024/04/19 00:14:18;;;;;;;2.42;2.10;;;;;;;6.55;45.18;93341.66;5267578;26;20006;-75
2024/04/19 00:16:44;;;;;;;2.15;1.95;;;;;;;6.43;44.36;93349.31;5274506;26;20010;-75
2024/04/19 00:19:09;;;;;;;2.42;1.83;;;;;;;6.56;44.20;93353.00;5274413;26;20052;-74
2024/04/19 00:21:34;;;;;;;2.08;1.88;;;;;;;6.63;44.93;93326.94;5272558;26;20405;-75
2024/04/19 00:24:00;;;;;;;2.33;1.90;;;;;;;6.43;46.01;93354.59;5271989;26;20017;-75
2024/04/19 00:26:25;;;;;;;2.38;1.90;;;;;;;6.54;46.50;93334.03;5271858;26;20073;-75
2024/04/19 00:28:50;;;;;;;3.30;2.05;;;;;;;6.65;46.12;93354.63;5252047;26;20056;-75
2024/04/19 00:31:16;;;;;;;2.40;2.20;;;;;;;6.50;46.49;93349.72;5265958;26;20014;-74
2024/04/19 00:33:42;;;;;;;3.05;2.30;;;;;;;6.52;47.17;93363.38;5272008;26;20015;-74
2024/04/19 00:36:07;;;;;;;2.88;2.17;;;;;;;6.46;47.48;93359.28;5267524;26;20041;-74
2024/04/19 00:38:33;;;;;;;3.22;2.67;;;;;;;6.47;47.41;93354.78;5267299;26;20002;-73
2024/04/19 00:40:58;;;;;;;2.40;2.20;;;;;;;6.25;48.10;93342.34;5269736;26;20088;-75
2024/04/19 00:43:23;;;;;;;3.03;2.75;;;;;;;6.41;47.93;93356.75;5272481;26;20027;-74
2024/04/19 00:45:50;;;;;;;4.05;2.70;;;;;;;5.86;49.59;93367.38;5272036;26;20014;-73
2024/04/19 00:48:20;;;;;;;3.33;3.03;;;;;;;5.70;50.08;93360.81;5268118;26;20026;-74
2024/04/19 00:50:49;;;;;;;3.58;2.60;;;;;;;5.66;50.33;93373.03;5277398;26;20028;-74
2024/04/19 00:53:19;;;;;;;3.03;2.72;;;;;;;4.65;53.03;93369.47;5269355;26;20461;-74
2024/04/19 00:55:45;;;;;;;3.30;3.05;;;;;;;5.14;51.77;93371.56;5267524;26;20017;-74
2024/04/19 00:58:11;;;;;;;3.42;3.13;;;;;;;4.86;52.80;93376.00;5295381;26;20010;-74
2024/04/19 01:00:36;;;;;;;3.03;2.60;;;;;;;5.25;51.70;93369.56;5271769;26;20027;-74
2024/04/19 01:03:02;;;;;;;4.57;2.78;;;;;;;5.36;50.97;93373.59;5274895;26;20076;-74
2024/04/19 01:05:27;;;;;;;2.88;2.58;;;;;;;5.50;51.05;93374.38;5274113;26;20297;-74
2024/04/19 01:07:53;;;;;;;3.63;2.63;;;;;;;5.50;50.98;93371.75;5261735;26;20084;-74
2024/04/19 01:10:19;;;;;;;4.82;3.00;;;;;;;5.28;51.48;93371.63;5240610;26;20338;-72
2024/04/19 01:12:44;;;;;;;4.07;2.72;;;;;;;5.30;51.20;93382.66;5270928;26;20026;-72
2024/04/19 01:15:23;;;;;;;3.40;2.75;;;;;;;5.44;50.90;93389.53;5265155;26;20017;-74
2024/04/19 01:17:49;;;;;;;2.95;2.67;;;;;;;4.39;53.34;93391.97;5266946;26;20006;-74
2024/04/19 01:20:14;;;;;;;3.15;2.85;;;;;;;3.96;54.80;93388.56;5268930;26;20046;-74
2024/04/19 01:22:42;;;;;;;3.53;3.10;;;;;;;3.91;55.45;93386.00;5263910;26;20477;-74
2024/04/19 01:25:14;;;;;;;2.95;2.55;;;;;;;4.19;55.28;93393.00;5268394;26;20488;-75
2024/04/19 01:27:39;;;;;;;3.22;2.97;;;;;;;3.70;56.70;93390.69;5272284;26;20014;-75
2024/04/19 01:30:06;;;;;;;3.55;2.58;;;;;;;4.23;55.55;93384.25;5269759;26;20006;-75
2024/04/19 01:32:31;;;;;;;4.10;2.75;;;;;;;3.77;57.19;93385.88;5265880;26;20161;-75
2024/04/19 01:34:56;;;;;;;4.05;2.72;;;;;;;4.30;55.93;93383.94;5272149;26;20465;-75
2024/04/19 01:37:22;;;;;;;4.15;2.40;;;;;;;4.54;54.78;93373.34;5265225;26;20686;-75
2024/04/19 01:39:47;;;;;;;3.30;2.95;;;;;;;4.85;53.40;93387.59;5245746;26;20006;-74
2024/04/19 01:42:13;;;;;;;3.70;3.22;;;;;;;4.97;53.42;93390.59;5271471;26;20009;-74
2024/04/19 01:44:38;;;;;;;4.70;3.03;;;;;;;4.93;53.11;93400.13;5267594;26;20017;-75
2024/04/19 01:47:04;;;;;;;5.53;2.88;;;;;;;4.91;53.12;93394.38;5269935;26;20472;-75
2024/04/19 01:49:30;;;;;;;3.58;3.10;;;;;;;4.91;53.27;93394.38;5266551;26;20469;-75
2024/04/19 01:51:57;;;;;;;3.05;2.75;;;;;;;5.01;53.00;93388.16;5266409;26;20014;-74
2024/04/19 01:54:23;;;;;;;4.05;3.00;;;;;;;5.03;52.99;93397.34;5261435;26;20586;-74
2024/04/19 01:56:48;;;;;;;4.07;2.65;;;;;;;5.12;53.09;93400.88;5262204;26;20037;-75
2024/04/19 01:59:14;;;;;;;3.13;2.75;;;;;;;5.20;52.39;93403.91;5266382;26;20025;-74
2024/04/19 02:01:39;;;;;;;3.45;3.10;;;;;;;5.26;52.24;93384.31;5268435;26;20704;-75
2024/04/19 02:04:04;;;;;;;3.78;2.88;;;;;;;5.38;52.11;93395.94;5270509;26;20508;-74
2024/04/19 02:06:30;;;;;;;9.40;3.10;;;;;;;5.42;52.39;93396.16;5266672;26;20163;-75
2024/04/19 02:08:55;;;;;;;3.03;2.60;;;;;;;5.40;52.35;93393.81;5260823;26;20010;-75
2024/04/19 02:11:21;;;;;;;3.72;3.20;;;;;;;5.36;53.16;93402.59;5271520;26;20027;-74
2024/04/19 02:13:47;;;;;;;3.20;2.90;;;;;;;5.37;52.68;93397.03;5267916;26;21033;-75
2024/04/19 02:16:12;;;;;;;2.90;2.70;;;;;;;5.26;52.79;93402.78;5297426;26;20452;-74
2024/04/19 02:18:38;;;;;;;3.42;2.88;;;;;;;5.30;52.58;93401.91;5271629;26;20002;-75
2024/04/19 02:21:03;;;;;;;3.25;2.95;;;;;;;5.24;53.02;93402.25;5278177;26;20029;-73
2024/04/19 02:23:35;;;;;;;2.92;2.63;;;;;;;5.23;53.25;93400.72;5269955;26;20013;-73
2024/04/19 02:26:01;;;;;;;3.10;2.78;;;;;;;5.25;52.86;93398.56;5263786;26;20002;-74
2024/04/19 02:31:10;;;;;;;2.97;2.78;;;;;;;5.20;52.73;93411.81;5272883;26;20024;-73
2024/04/19 02:33:36;;;;;;;2.30;2.10;;;;;;;5.03;53.53;93407.88;5266577;26;20466;-74
2024/04/19 02:36:01;;;;;;;2.78;2.25;;;;;;;4.68;54.30;93411.06;5271799;26;20006;-74
2024/04/19 02:38:27;;;;;;;3.35;2.30;;;;;;;4.83;53.80;93410.84;5273230;26;20461;-74
2024/04/19 02:40:52;;;;;;;3.67;2.25;;;;;;;4.91;53.66;93389.09;5259145;26;20024;-74
2024/04/19 02:43:18;;;;;;;3.22;2.50;;;;;;;5.10;53.41;93413.56;5269077;26;20010;-72
2024/04/19 02:45:43;;;;;;;3.47;3.17;;;;;;;5.11;53.86;93404.59;5274094;26;20088;-74
2024/04/19 02:48:08;;;;;;;2.63;2.42;;;;;;;5.13;53.30;93404.31;5271808;26;20365;-74
2024/04/19 02:50:34;;;;;;;3.78;2.60;;;;;;;5.24;52.92;93407.53;5276524;26;20014;-75
2024/04/19 02:52:59;;;;;;;3.85;2.97;;;;;;;5.14;53.02;93393.47;5275831;26;20017;-75
2024/04/19 02:55:25;;;;;;;3.10;2.70;;;;;;;5.18;53.09;93398.16;5264162;26;20013;-74
2024/04/19 02:57:50;;;;;;;3.05;2.00;;;;;;;5.35;52.95;93415.00;5267131;26;20029;-74
2024/04/19 03:00:16;;;;;;;2.78;2.47;;;;;;;5.43;53.11;93403.03;5272374;26;20582;-74
2024/04/19 03:02:42;;;;;;;2.63;2.25;;;;;;;5.08;53.43;93418.34;5261536;26;20053;-74
2024/04/19 03:05:07;;;;;;;2.58;2.38;;;;;;;5.20;53.85;93419.72;5267057;26;20081;-74
2024/04/19 03:07:32;;;;;;;2.75;2.55;;;;;;;5.27;53.90;93417.53;5272018;26;20763;-73
2024/04/19 03:09:58;;;;;;;5.00;2.33;;;;;;;5.12;53.73;93419.34;5259441;26;20618;-74
2024/04/19 03:12:23;;;;;;;3.88;2.55;;;;;;;4.94;54.43;93417.50;5254574;26;21080;-75
2024/04/19 03:14:49;;;;;;;3.72;2.58;;;;;;;5.12;53.97;93406.16;5249352;26;20141;-75
2024/04/19 03:17:14;;;;;;;2.65;2.40;;;;;;;5.23;53.89;93411.25;5266283;26;20020;-75
2024/04/19 03:19:40;;;;;;;4.15;2.80;;;;;;;5.22;53.82;93414.97;5262139;26;20028;-76
2024/04/19 03:22:05;;;;;;;2.67;2.47;;;;;;;5.09;54.02;93401.44;5263202;26;20407;-73
2024/04/19 03:24:31;;;;;;;3.60;2.75;;;;;;;5.23;53.66;93416.53;5267426;26;20006;-75
2024/04/19 03:26:56;;;;;;;2.35;2.15;;;;;;;5.11;53.82;93415.13;5266034;26;20010;-75
2024/04/19 03:29:22;;;;;;;4.10;3.40;;;;;;;5.37;53.76;93418.13;5259863;26;20029;-74
2024/04/19 03:31:47;;;;;;;3.80;2.80;;;;;;;5.49;52.97;93423.72;5267953;26;20056;-73
2024/04/19 03:34:13;;;;;;;5.63;3.33;;;;;;;5.49;53.38;93399.19;5262490;26;20014;-73
2024/04/19 03:36:39;;;;;;;6.60;4.05;;;;;;;5.44;52.89;93396.66;5267548;26;20360;-74
2024/04/19 03:39:05;;;;;;;5.65;3.40;;;;;;;5.43;53.07;93409.03;5264106;26;20018;-74
2024/04/19 03:41:33;;;;;;;8.45;4.15;;;;;;;5.44;54.22;93434.34;5269433;26;20021;-73
2024/04/19 03:46:46;;;;;;;5.70;3.95;;;;;;;4.82;55.89;93438.25;5271533;26;20050;-74
2024/04/19 03:49:12;;;;;;;6.22;4.97;;;;;;;4.48;56.44;93421.88;5273515;26;20014;-73
2024/04/19 03:51:37;;;;;;;6.38;5.38;;;;;;;4.25;58.47;93441.88;5265937;26;20009;-76
2024/04/19 03:54:02;;;;;;;8.52;5.45;;;;;;;4.49;57.55;93449.78;5266213;26;20017;-74
2024/04/19 03:56:28;;;;;;;10.15;7.22;;;;;;;4.85;57.44;93448.19;5268813;26;20014;-74
2024/04/19 03:58:53;;;;;;;8.55;7.18;;;;;;;5.06;56.87;93443.41;5269720;26;20039;-74
2024/04/19 04:01:19;;;;;;;10.48;6.72;;;;;;;5.14;56.35;93455.94;5266397;26;20690;-75
2024/04/19 04:03:44;;;;;;;9.65;7.90;;;;;;;5.02;56.94;93421.34;5264347;26;20459;-74
2024/04/19 04:06:10;;;;;;;11.65;7.38;;;;;;;5.39;56.40;93457.38;5273202;26;20086;-74
2024/04/19 04:08:35;;;;;;;9.95;7.53;;;;;;;5.43;56.36;93458.41;5268426;26;20046;-73
2024/04/19 04:11:00;;;;;;;11.82;8.60;;;;;;;5.45;56.25;93461.50;5266184;26;20132;-74
2024/04/19 04:13:30;;;;;;;11.85;8.88;;;;;;;5.43;56.05;93463.69;5266781;26;20013;-75
2024/04/19 04:15:55;;;;;;;8.70;7.72;;;;;;;5.56;55.81;93473.47;5266869;26;20122;-73
2024/04/19 04:18:20;;;;;;;9.80;7.10;;;;;;;5.47;55.69;93446.19;5278088;26;20022;-73
2024/04/19 04:20:46;;;;;;;14.63;7.05;;;;;;;5.74;55.33;93471.84;5270211;26;20010;-74
2024/04/19 04:23:11;;;;;;;8.23;6.85;;;;;;;5.78;55.05;93465.69;5270024;26;20013;-73
2024/04/19 04:25:36;;;;;;;13.93;7.38;;;;;;;5.85;54.96;93476.66;5263484;26;20940;-74
2024/04/19 04:28:03;;;;;;;9.13;6.80;;;;;;;5.87;55.04;93481.66;5268254;26;20778;-74
2024/04/19 04:30:28;;;;;;;12.27;8.77;;;;;;;5.96;54.67;93482.53;5268888;26;20013;-74
2024/04/19 04:32:54;;;;;;;13.35;7.53;;;;;;;5.91;54.68;93472.84;5270228;26;20025;-73
2024/04/19 04:35:19;;;;;;;9.43;7.30;;;;;;;5.96;54.54;93483.31;5270032;26;20025;-72
2024/04/19 04:37:45;;;;;;;10.85;7.38;;;;;;;5.69;55.56;93479.84;5265444;26;20022;-73
2024/04/19 04:40:10;;;;;;;10.65;7.15;;;;;;;5.61;56.04;93483.94;5272376;26;20560;-72
2024/04/19 04:42:36;;;;;;;8.77;7.63;;;;;;;5.82;54.84;93479.84;5262197;26;20229;-72
2024/04/19 04:45:02;;;;;;;13.18;8.73;;;;;;;6.01;55.04;93485.09;5263643;26;20015;-73
2024/04/19 04:47:28;;;;;;;9.30;7.55;;;;;;;6.09;53.91;93480.97;5268863;26;20024;-72
2024/04/19 04:49:53;;;;;;;7.88;6.93;;;;;;;5.94;53.96;93482.81;5258450;26;20005;-73
2024/04/19 04:52:19;;;;;;;10.52;7.22;;;;;;;5.94;53.51;93490.75;5265243;26;20010;-71
2024/04/19 04:54:44;;;;;;;9.82;8.05;;;;;;;5.99;54.11;93493.28;5274135;26;20388;-73
2024/04/19 04:57:10;;;;;;;11.07;8.50;;;;;;;6.00;53.95;93494.88;5272038;26;20083;-72
2024/04/19 04:59:35;;;;;;;13.43;8.35;;;;;;;5.93;54.04;93483.88;5271495;26;20094;-73
2024/04/19 05:02:03;;;;;;;11.88;7.43;;;;;;;5.53;55.01;93503.03;5261507;26;20461;-73
2024/04/19 05:04:28;;;;;;;10.13;7.82;;;;;;;5.38;55.79;93503.31;5260864;26;20029;-72
2024/04/19 05:06:54;;;;;;;11.55;8.07;;;;;;;5.78;55.03;93517.69;5265414;26;20056;-72
2024/04/19 05:09:19;;;;;;;13.32;8.25;;;;;;;5.85;54.79;93513.59;5266813;26;20028;-73
2024/04/19 05:11:46;;;;;;;13.70;8.13;;;;;;;5.94;54.84;93516.34;5268693;26;20094;-73
2024/04/19 05:14:11;;;;;;;12.52;9.00;;;;;;;6.02;54.34;93514.91;5255190;26;20023;-73
2024/04/19 05:16:40;;;;;;;9.20;7.95;;;;;;;6.05;54.26;93522.25;5269497;26;20376;-72
2024/04/19 05:19:05;;;;;;;13.95;8.73;;;;;;;6.05;54.42;93524.88;5291890;26;20006;-72
2024/04/19 05:21:31;;;;;;;14.27;8.57;;;;;;;5.41;54.96;93521.97;5266018;26;20028;-73
2024/04/19 05:23:56;;;;;;;15.43;8.98;;;;;;;5.19;56.19;93526.28;5272662;26;20006;-72
2024/04/19 05:26:21;;;;;;;12.68;8.25;;;;;;;5.14;56.99;93530.53;5268969;26;20022;-73
2024/04/19 05:28:47;;;;;;;12.77;8.63;;;;;;;5.56;56.57;93526.22;5260193;26;20010;-72
2024/04/19 05:31:12;;;;;;;13.30;8.85;;;;;;;5.78;56.14;93533.50;5275465;26;20033;-72
2024/04/19 05:33:39;;;;;;;14.52;8.85;;;;;;;5.58;56.62;93534.63;5268185;26;20099;-72
2024/04/19 05:36:05;;;;;;;9.60;7.82;;;;;;;5.27;57.63;93533.53;5259804;26;20444;-72
2024/04/19 05:38:30;;;;;;;15.80;9.25;;;;;;;5.43;56.68;93524.34;5260146;26;20020;-73
2024/04/19 05:40:56;;;;;;;16.42;9.52;;;;;;;5.05;58.23;93526.97;5264627;26;20018;-73
2024/04/19 05:43:21;;;;;;;22.75;9.35;;;;;;;5.51;57.62;93539.50;5268776;26;20433;-74
2024/04/19 05:45:47;;;;;;;14.52;9.43;;;;;;;5.79;57.19;93540.34;5265799;26;20005;-73
2024/04/19 05:48:13;;;;;;;15.63;10.25;;;;;;;5.76;57.41;93533.03;5263893;26;20684;-73
2024/04/19 05:50:39;;;;;;;15.45;10.68;;;;;;;5.85;56.23;93528.66;5266265;26;20279;-73
2024/04/19 05:53:04;;;;;;;15.27;11.50;;;;;;;5.09;58.29;93538.50;5267932;26;20477;-73
2024/04/19 05:55:30;;;;;;;18.98;12.38;;;;;;;5.07;59.28;93535.41;5266362;26;20028;-73
2024/04/19 05:57:56;;;;;;;17.48;12.20;;;;;;;5.06;58.71;93531.19;5268685;26;20408;-72
2024/04/19 06:00:22;;;;;;;20.55;11.52;;;;;;;5.11;59.76;93536.38;5274746;26;20872;-73
2024/04/19 06:02:48;;;;;;;20.35;12.30;;;;;;;5.53;57.95;93534.69;5270721;26;20462;-73
2024/04/19 06:05:13;;;;;;;16.10;11.50;;;;;;;5.36;57.21;93537.09;5269822;26;20039;-73
2024/04/19 06:07:39;;;;;;;19.75;11.60;;;;;;;5.53;57.87;93538.13;5264336;26;20522;-73
2024/04/19 06:10:05;;;;;;;17.77;12.88;;;;;;;5.98;57.07;93535.81;5268036;26;20020;-73
2024/04/19 06:12:31;;;;;;;16.08;11.02;;;;;;;5.84;55.65;93538.41;5274021;26;20025;-73
2024/04/19 06:14:57;;;;;;;10.98;8.90;;;;;;;6.03;55.21;93535.72;5273142;26;20376;-73
2024/04/19 06:17:22;;;;;;;11.95;9.68;;;;;;;5.90;55.52;93513.53;5275040;26;20017;-73
2024/04/19 06:19:48;;;;;;;12.48;9.93;;;;;;;5.78;55.46;93528.22;5272547;26;20020;-73
2024/04/19 06:22:14;;;;;;;12.98;9.90;;;;;;;6.09;54.89;93533.78;5272983;26;20372;-73
2024/04/19 06:24:40;;;;;;;11.82;8.43;;;;;;;5.89;54.39;93508.53;5268151;26;20009;-72
2024/04/19 06:27:06;;;;;;;11.05;8.48;;;;;;;5.79;54.43;93524.53;5275973;26;20017;-73
2024/04/19 06:29:31;;;;;;;9.80;8.02;;;;;;;5.93;54.75;93523.47;5273637;26;20020;-73
2024/04/19 06:31:57;;;;;;;13.07;8.77;;;;;;;6.02;54.77;93522.84;5266642;26;20029;-72
2024/04/19 06:34:22;;;;;;;12.65;8.05;;;;;;;6.28;53.82;93513.38;5262025;26;20050;-73
2024/04/19 06:36:48;;;;;;;14.65;10.98;;;;;;;5.91;54.74;93512.44;5269871;26;21006;-72
2024/04/19 06:39:26;;;;;;;12.75;8.98;;;;;;;5.77;54.91;93495.81;5270901;26;20470;-73
2024/04/19 06:41:52;;;;;;;16.50;9.25;;;;;;;5.86;55.18;93494.06;5264389;26;20038;-72
2024/04/19 06:44:18;;;;;;;15.65;9.95;;;;;;;5.90;55.75;93510.88;5269590;26;20112;-73
2024/04/19 06:46:43;;;;;;;13.02;9.65;;;;;;;5.93;55.81;93512.13;5296409;26;20020;-72
2024/04/19 06:49:08;;;;;;;12.60;9.07;;;;;;;5.80;55.13;93515.53;5280883;26;20032;-72
2024/04/19 06:51:34;;;;;;;13.75;8.57;;;;;;;5.87;54.53;93516.72;5272358;26;20035;-73
2024/04/19 06:53:59;;;;;;;15.00;8.48;;;;;;;6.11;54.53;93458.50;5267004;26;20502;-72
2024/04/19 06:56:25;;;;;;;13.00;8.90;;;;;;;6.67;52.72;93500.47;5273421;26;20036;-72
2024/04/19 06:58:50;;;;;;;11.25;8.70;;;;;;;6.36;52.95;93507.44;5269157;26;20010;-73
2024/04/19 07:01:16;;;;;;;11.48;7.60;;;;;;;6.18;53.16;93516.22;5272423;26;20010;-73
2024/04/19 07:03:41;;;;;;;11.38;7.97;;;;;;;6.13;52.64;93509.13;5267765;26;20424;-73
2024/04/19 07:06:10;;;;;;;9.55;6.70;;;;;;;6.55;52.25;93510.75;5264189;26;20014;-73
2024/04/19 07:08:35;;;;;;;9.20;7.07;;;;;;;6.74;50.60;93506.13;5264123;26;20641;-73
2024/04/19 07:11:02;;;;;;;8.65;7.05;;;;;;;6.68;50.82;93503.88;5268992;26;20717;-73
2024/04/19 07:13:28;;;;;;;11.85;6.93;;;;;;;6.43;51.92;93507.81;5274913;26;20014;-73
2024/04/19 07:15:54;;;;;;;10.30;6.88;;;;;;;7.17;51.99;93505.75;5266568;26;20010;-73
2024/04/19 07:18:22;;;;;;;8.68;6.20;;;;;;;7.26;49.56;93477.50;5245677;26;20017;-73
2024/04/19 07:20:51;;;;;;;11.45;7.40;;;;;;;7.36;51.67;93509.00;5275681;26;20053;-73
2024/04/19 07:23:21;;;;;;;10.00;7.53;;;;;;;7.88;49.27;93504.06;5266800;26;20024;-74
2024/04/19 07:25:47;;;;;;;8.35;7.00;;;;;;;7.00;49.02;93511.66;5267603;26;20028;-73
2024/04/19 07:28:13;;;;;;;9.18;6.70;;;;;;;7.45;48.34;93507.22;5261756;26;20002;-68
2024/04/19 07:30:39;;;;;;;9.52;6.53;;;;;;;7.84;48.72;93487.25;5261742;26;20038;-73
2024/04/19 07:33:04;;;;;;;6.75;5.68;;;;;;;8.23;46.01;93495.22;5267073;26;20025;-73
2024/04/19 07:35:30;;;;;;;6.72;5.63;;;;;;;8.50;45.30;93499.56;5269339;26;20009;-73
2024/04/19 07:37:56;;;;;;;6.40;5.00;;;;;;;8.76;44.18;93497.72;5269813;26;20640;-73
2024/04/19 07:40:25;;;;;;;7.22;5.22;;;;;;;7.47;45.63;93494.47;5274880;26;20025;-73
2024/04/19 07:42:50;;;;;;;6.72;5.70;;;;;;;7.88;46.10;93493.47;5267367;26;20014;-73
2024/04/19 07:45:18;;;;;;;10.13;5.70;;;;;;;7.96;46.01;93484.81;5270785;26;20020;-73
2024/04/19 07:47:45;;;;;;;7.90;5.88;;;;;;;7.77;46.78;93487.69;5274185;26;20010;-73
2024/04/19 07:50:10;;;;;;;7.47;5.90;;;;;;;7.44;47.11;93484.47;5269219;26;20013;-73
2024/04/19 07:52:36;;;;;;;6.88;5.93;;;;;;;7.61;46.80;93489.91;5264067;26;20102;-73
2024/04/19 07:55:02;;;;;;;8.48;6.25;;;;;;;7.35;47.10;93480.97;5293022;26;20020;-74
2024/04/19 07:57:27;;;;;;;7.25;5.70;;;;;;;7.64;47.59;93478.69;5271975;26;20018;-75
2024/04/19 07:59:53;;;;;;;8.20;5.95;;;;;;;8.09;47.09;93483.94;5271237;26;20021;-73
2024/04/19 08:02:20;;;;;;;5.53;4.97;;;;;;;8.41;46.05;93480.94;5267212;26;20009;-73
2024/04/19 08:04:45;;;;;;;8.50;5.47;;;;;;;8.38;44.27;93465.66;5268560;26;20014;-74
2024/04/19 08:07:11;;;;;;;10.05;5.93;;;;;;;8.00;44.57;93469.88;5265519;26;20013;-73
2024/04/19 08:09:36;;;;;;;8.52;6.00;;;;;;;8.44;44.65;93458.38;5272956;26;20014;-73
2024/04/19 08:12:03;;;;;;;7.22;4.95;;;;;;;8.83;42.94;93468.91;5251361;26;20023;-73
2024/04/19 08:14:28;;;;;;;7.30;6.05;;;;;;;8.80;43.06;93458.94;5263896;26;20025;-73
2024/04/19 08:16:54;;;;;;;10.85;6.28;;;;;;;9.04;42.02;93461.13;5294767;26;20014;-74
2024/04/19 08:19:19;;;;;;;9.88;6.10;;;;;;;9.13;42.15;93461.94;5267224;26;20093;-73
2024/04/19 08:21:45;;;;;;;8.05;5.90;;;;;;;8.82;43.30;93462.03;5271014;26;20032;-73
2024/04/19 08:24:10;;;;;;;8.25;6.55;;;;;;;8.99;42.65;93458.63;5272767;26;20006;-74
2024/04/19 08:26:36;;;;;;;9.90;5.88;;;;;;;8.79;43.71;93400.91;5270750;26;20137;-73
2024/04/19 08:29:01;;;;;;;9.65;5.80;;;;;;;9.22;42.75;93441.50;5271786;26;20027;-73
2024/04/19 08:31:27;;;;;;;8.32;5.63;;;;;;;9.16;44.64;93453.34;5262693;26;20438;-74
2024/04/19 08:33:53;;;;;;;10.57;6.88;;;;;;;9.49;42.83;93458.94;5272014;26;20043;-73
2024/04/19 08:36:19;;;;;;;6.28;5.63;;;;;;;9.62;42.00;93454.56;5267975;26;20009;-73
2024/04/19 08:38:45;;;;;;;9.05;6.05;;;;;;;9.62;41.79;93459.88;5271391;26;20005;-74
2024/04/19 08:41:12;;;;;;;10.02;5.82;;;;;;;9.69;41.87;93449.53;5269901;26;20621;-74
2024/04/19 08:43:37;;;;;;;8.68;5.88;;;;;;;8.65;43.12;93451.41;5269486;26;20017;-74
2024/04/19 08:46:04;;;;;;;7.50;5.95;;;;;;;9.02;42.27;93452.69;5273624;26;20502;-74
2024/04/19 08:48:31;;;;;;;11.70;6.93;;;;;;;9.17;42.89;93439.00;5272695;26;20001;-74
2024/04/19 08:51:00;;;;;;;6.40;5.00;;;;;;;9.51;39.96;93453.31;5269177;26;20032;-74
2024/04/19 08:53:26;;;;;;;9.82;5.03;;;;;;;9.57;39.44;93436.16;5263363;26;20032;-74
2024/04/19 08:55:53;;;;;;;7.03;5.38;;;;;;;9.70;41.13;93451.09;5267864;26;20020;-73
2024/04/19 08:58:21;;;;;;;5.22;4.53;;;;;;;9.44;38.97;93390.88;5264067;26;20016;-74
2024/04/19 09:00:46;;;;;;;5.60;4.40;;;;;;;10.00;38.79;93450.09;5266269;26;20013;-73
2024/04/19 09:03:12;;;;;;;6.03;5.15;;;;;;;9.52;38.87;93444.28;5266670;26;20025;-74
2024/04/19 09:05:37;;;;;;;5.32;3.95;;;;;;;9.68;39.16;93442.69;5268984;26;20715;-74
2024/04/19 09:08:05;;;;;;;9.68;4.95;;;;;;;9.79;38.00;93443.91;5269393;26;20017;-74
2024/04/19 09:10:31;;;;;;;7.18;4.65;;;;;;;9.76;37.00;93444.53;5263089;26;20469;-73
2024/04/19 09:12:57;;;;;;;8.57;4.25;;;;;;;9.54;38.22;93445.50;5272943;26;20140;-75
2024/04/19 09:15:27;;;;;;;4.75;4.20;;;;;;;9.94;35.97;93446.03;5265818;26;20020;-74
2024/04/19 09:17:53;;;;;;;5.38;3.35;;;;;;;10.04;35.67;93440.38;5277763;26;20009;-74
2024/04/19 09:20:20;;;;;;;4.25;3.83;;;;;;;10.20;35.95;93438.00;5271541;26;20095;-74
2024/04/19 09:22:45;;;;;;;5.40;3.97;;;;;;;10.23;35.21;93435.47;5268745;26;20017;-74
2024/04/19 09:25:16;;;;;;;6.68;4.53;;;;;;;9.94;35.26;93432.78;5264175;26;20437;-74
2024/04/19 09:27:42;;;;;;;10.52;4.32;;;;;;;9.88;36.63;93432.16;5275066;26;20009;-74
2024/04/19 09:30:09;;;;;;;5.57;4.20;;;;;;;9.94;35.91;93429.31;5274257;26;20016;-74
2024/04/19 09:32:35;;;;;;;17.67;6.85;;;;;;;9.55;36.00;93430.38;5238426;26;20024;-74
2024/04/19 09:35:01;;;;;;;4.60;3.65;;;;;;;9.47;35.54;93426.63;5271841;26;20009;-74
2024/04/19 09:37:29;;;;;;;5.07;3.90;;;;;;;9.29;35.51;93428.53;5267269;26;20002;-74
2024/04/19 09:39:55;;;;;;;5.70;4.18;;;;;;;9.81;36.86;93420.47;5273659;26;20491;-74
2024/04/19 09:42:22;;;;;;;6.85;4.68;;;;;;;10.16;35.31;93411.28;5273532;26;20741;-74
2024/04/19 09:44:50;;;;;;;7.65;3.92;;;;;;;9.91;34.82;93414.03;5265986;26;20034;-74
2024/04/19 09:47:16;;;;;;;8.40;3.72;;;;;;;8.97;36.53;93402.44;5266993;26;20018;-74
2024/04/19 09:49:45;;;;;;;5.13;4.20;;;;;;;8.86;36.17;93385.28;5285191;26;20025;-76
2024/04/19 09:52:19;;;;;;;5.82;4.30;;;;;;;9.19;36.63;93402.34;5272997;26;20014;-74
2024/04/19 09:54:46;;;;;;;5.65;4.20;;;;;;;9.55;37.76;93401.16;5266090;26;20446;-74
2024/04/19 09:57:13;;;;;;;6.30;4.10;;;;;;;9.38;36.90;93408.09;5270579;26;20010;-74
2024/04/19 09:59:39;;;;;;;6.97;4.30;;;;;;;9.00;36.10;93375.28;5273531;26;20009;-74
2024/04/19 10:02:05;;;;;;;5.88;4.38;;;;;;;8.90;37.85;93400.25;5266345;26;20010;-74
2024/04/19 10:04:32;;;;;;;5.05;4.47;;;;;;;8.50;36.30;93396.97;5274641;26;20421;-74
2024/04/19 10:06:58;;;;;;;5.82;4.40;;;;;;;9.02;37.36;93400.44;5275625;26;20005;-74
2024/04/19 10:09:27;;;;;;;5.75;4.05;;;;;;;9.60;35.75;93390.38;5266508;26;20005;-74
2024/04/19 10:11:54;;;;;;;5.22;4.07;;;;;;;9.90;35.50;93389.34;5265314;26;20041;-75
2024/04/19 10:14:23;;;;;;;10.95;4.38;;;;;;;9.94;34.77;93381.50;5267281;26;20464;-75
2024/04/19 10:16:49;;;;;;;7.10;3.28;;;;;;;10.17;35.19;93374.88;5281316;26;20087;-74
2024/04/19 10:19:15;;;;;;;2.85;2.10;;;;;;;9.80;35.94;93379.84;5264307;26;20081;-74
2024/04/19 10:21:42;;;;;;;6.60;2.55;;;;;;;9.87;35.07;93371.41;5271487;26;20614;-74
2024/04/19 10:24:14;;;;;;;3.95;2.42;;;;;;;9.48;35.42;93374.34;5267383;26;20013;-76
2024/04/19 10:26:40;;;;;;;4.32;2.58;;;;;;;9.37;34.49;93371.22;5269574;26;20009;-75
2024/04/19 10:29:05;;;;;;;2.33;1.88;;;;;;;9.30;36.40;93357.66;5267949;26;20088;-74
2024/04/19 10:31:34;;;;;;;5.10;2.42;;;;;;;9.65;38.18;93368.97;5262091;26;20014;-74
2024/04/19 10:33:59;;;;;;;3.13;2.30;;;;;;;9.44;35.41;93321.88;5268194;26;20364;-73
2024/04/19 10:36:30;;;;;;;4.25;2.95;;;;;;;9.98;39.50;93348.69;5271561;26;20009;-73
2024/04/19 10:38:57;;;;;;;3.53;2.42;;;;;;;10.36;34.57;93347.88;5268295;26;20353;-74
2024/04/19 10:41:22;;;;;;;2.33;2.13;;;;;;;10.39;34.41;93347.25;5262612;26;20485;-74
2024/04/19 10:43:48;;;;;;;2.90;2.50;;;;;;;10.18;35.16;93342.63;5267212;26;20088;-74
2024/04/19 10:46:15;;;;;;;3.50;2.20;;;;;;;10.13;36.21;93337.50;5271926;26;20536;-72
2024/04/19 10:48:41;;;;;;;3.13;2.63;;;;;;;9.94;34.39;93339.78;5274102;26;20013;-73
2024/04/19 10:51:13;;;;;;;2.38;1.98;;;;;;;10.06;34.46;93331.94;5268934;26;20024;-74
2024/04/19 10:53:40;;;;;;;3.65;2.08;;;;;;;10.20;33.82;93327.16;5270111;26;20536;-74
2024/04/19 10:56:05;;;;;;;3.45;2.90;;;;;;;10.09;36.40;93333.94;5265803;26;20012;-74
2024/04/19 10:58:31;;;;;;;5.28;2.80;;;;;;;10.02;34.45;93336.34;5259158;26;20010;-73
2024/04/19 11:00:57;;;;;;;3.63;2.63;;;;;;;10.51;36.62;93323.41;5271370;26;20005;-74
2024/04/19 11:03:24;;;;;;;2.17;1.98;;;;;;;10.68;34.02;93305.44;5267256;26;20017;-73
2024/04/19 11:05:50;;;;;;;4.88;2.28;;;;;;;10.60;34.28;93318.81;5262613;26;20025;-74
2024/04/19 11:08:15;;;;;;;3.13;2.47;;;;;;;10.45;37.07;93322.03;5267952;26;20457;-74
2024/04/19 11:10:41;;;;;;;2.13;1.88;;;;;;;10.10;34.79;93316.91;5274907;26;20079;-73
2024/04/19 11:13:08;;;;;;;2.65;2.28;;;;;;;9.97;33.57;93317.91;5274419;26;20010;-73
2024/04/19 11:15:34;;;;;;;2.80;1.90;;;;;;;10.38;34.03;93311.13;5266495;26;20006;-73
2024/04/19 11:18:00;;;;;;;1.95;1.75;;;;;;;10.25;33.46;93313.69;5268607;26;20028;-74
2024/04/19 11:20:26;;;;;;;2.15;1.70;;;;;;;10.33;34.45;93310.19;5268267;26;20028;-74
2024/04/19 11:22:52;;;;;;;2.40;2.17;;;;;;;9.94;33.93;93304.47;5277506;26;20021;-73
2024/04/19 11:25:17;;;;;;;2.20;1.58;;;;;;;10.00;35.16;93303.22;5270594;26;20801;-73
2024/04/19 11:27:43;;;;;;;2.22;2.00;;;;;;;10.02;34.86;93301.03;5274153;26;20088;-73
2024/04/19 11:30:09;;;;;;;3.22;1.92;;;;;;;9.89;35.40;93306.22;5274131;26;20053;-73
2024/04/19 11:32:35;;;;;;;8.68;4.75;;;;;;;10.13;36.43;93300.31;5273231;26;20018;-74
2024/04/19 11:35:03;;;;;;;4.82;1.63;;;;;;;10.10;35.78;93285.03;5276562;26;20484;-73
2024/04/19 11:37:28;;;;;;;1.45;1.27;;;;;;;10.50;33.69;93297.91;5270511;26;20097;-74
2024/04/19 11:39:54;;;;;;;4.97;2.22;;;;;;;10.78;32.61;93298.94;5267883;26;20345;-73